Westphalia, Michigan
Current Conditions -  °F | °C
As of 11:33 PM on Saturday 20 Dec 2014 (Local Time) from KY70 Reporting Station
Overcast Overcast  
Wind Chill: 25°   Ceiling: 3400
Heat Index: 30°   Visibility: 7mi
Dew Point: 27°   Wind: 5mph
Humidity: 87%   Direction: 170°S
Pressure: 30.25"   Gusts: NA
Location:  42.93°N, 84.8°W
Report Text: KY70 210433Z AUTO 17004KT 7SM OVC034 M01/M03 A3025 RMK AO2 T10111030
Loading
Personal Weather Stations






























Interactive Weather Map New forecast layout! Learn more

10-Day Weather Forecast

Advertisements
Track Severe Weather on mobile